OIMB  Birjand Airport

Add Bookmark

Birjand, Iran

Status
Operational
Latitude Longitude
32° 53' 53" N 59° 15' 57" E
32.898056 59.266111
Local (DST + 5) UTC (GMT + 4)
Oct 26, 2014 08:37 Oct 26, 2014 05:07
Sunrise-Sunset Local UTC
Begin Civil Twilight 05:19 01:49
Sunrise 05:44 02:14
Sunset 04:49 13:19
End Civil Twilight 05:14 13:44

Current Weather

METAR Observed VFR
OIMB 260400Z 10004KT CAVOK 13/M06 Q1021 Sun, Oct 26, 2014 @ 04:00 UTC
(1 Hour, 7 Minutes ago)
Visual Flight Rules
Wind Visibility Clouds Conditions
100° at 4 knots (7 kph) 10 km or more
  • Clear skies
  • No significant weather
Temperatures Readings Precipitation
Current Temp 13°C (55°F)
Dewpoint -6°C (21°F)
Humidity 26%
Altimeter 30.15"Hg
Sea Level Pressure 1021mb
Field Elevation 4891.73'
None Recorded

Additional weather within a 185.2km radius of OIMB

Map ICAO Location
OIMD 170.2km N (342°)

24 Hour Weather History

Loading
-

24 Hour Weather Graphs

Loading
-

CheckWX.com is intended as a tool to help pilots better visualize weather data. It is not intended as a substitute for an official weather briefing obtained from a Flight Service Station. CheckWX.com does not meet the FAA requirements for an official pre-flight weather briefing. Therefore, it's important that pilots still call and obtain an official FSS pre-flight weather briefing.